Time;durP1;ratioP1;P1;durP2;ratioP2;P2;SDS_P1;SDS_P2;PMS_P1;PMS_P2;Temp;Humidity;BMP_temperature;BMP_pressure;BME280_temperature;BME280_humidity;BME280_pressure;Samples;Min_cycle;Max_cycle;Signal;HPM_P1;HPM_P2
2022/03/18 00:00:21;;;;;;;9.55;7.15;;;;;;;4.29;63.04;103209.75;692206;28;1474;-88
2022/03/18 00:00:41;;;;;;;9.25;7.25;;;;;;;4.30;62.94;103206.38;691452;28;1873;-88
2022/03/18 00:01:02;;;;;;;8.87;7.30;;;;;;;4.22;62.74;103197.00;691463;28;1273;-88
2022/03/18 00:01:23;;;;;;;9.40;7.32;;;;;;;4.21;62.92;103192.56;687400;28;1261;-88
2022/03/18 00:01:43;;;;;;;11.27;7.13;;;;;;;4.35;62.97;103218.09;691467;28;1270;-88
2022/03/18 00:02:04;;;;;;;12.43;7.00;;;;;;;4.24;63.25;103196.38;692355;28;1188;-88
2022/03/18 00:02:26;;;;;;;11.32;6.75;;;;;;;4.24;62.98;103200.66;693690;28;1517;-88
2022/03/18 00:02:47;;;;;;;9.73;6.60;;;;;;;4.32;63.15;103216.88;693079;28;1239;-89
2022/03/18 00:03:08;;;;;;;8.25;6.43;;;;;;;4.26;63.25;103204.31;691943;28;1379;-88
2022/03/18 00:03:28;;;;;;;9.27;6.70;;;;;;;4.19;63.01;103195.03;692494;28;1676;-88
2022/03/18 00:03:49;;;;;;;8.93;6.72;;;;;;;4.24;63.21;103198.09;692179;28;1637;-86
2022/03/18 00:04:16;;;;;;;9.20;6.88;;;;;;;4.28;63.15;103210.50;691912;28;1440;-86
2022/03/18 00:04:37;;;;;;;10.93;6.70;;;;;;;4.17;63.08;103195.66;688401;28;1380;-87
2022/03/18 00:04:57;;;;;;;10.20;6.40;;;;;;;4.24;63.24;103213.59;691378;28;1324;-86
2022/03/18 00:05:18;;;;;;;11.13;6.50;;;;;;;4.24;63.01;103209.31;690854;28;1151;-86
2022/03/18 00:05:41;;;;;;;11.35;6.55;;;;;;;4.22;63.12;103209.94;689017;28;1322;-86
2022/03/18 00:06:02;;;;;;;11.35;6.75;;;;;;;4.15;62.96;103198.09;686581;28;1439;-85
2022/03/18 00:06:23;;;;;;;11.38;6.88;;;;;;;4.20;63.25;103208.84;686277;28;1355;-86
2022/03/18 00:06:55;;;;;;;10.82;6.90;;;;;;;4.14;63.26;103203.09;689772;28;1257;-86
2022/03/18 00:07:16;;;;;;;11.38;7.43;;;;;;;4.13;63.13;103203.88;689094;28;1588;-86
2022/03/18 00:07:38;;;;;;;10.63;7.40;;;;;;;4.22;63.24;103220.28;689492;28;1300;-86
2022/03/18 00:07:59;;;;;;;13.45;7.65;;;;;;;4.15;63.16;103208.44;692521;28;1343;-86
2022/03/18 00:08:20;;;;;;;15.82;7.72;;;;;;;4.17;63.09;103200.84;695022;28;1439;-86
2022/03/18 00:08:41;;;;;;;16.75;7.70;;;;;;;4.14;62.88;103206.63;691551;28;1336;-89
2022/03/18 00:09:01;;;;;;;11.30;6.90;;;;;;;4.15;63.19;103208.44;692114;28;1990;-88
2022/03/18 00:09:22;;;;;;;13.73;7.47;;;;;;;4.14;63.09;103197.94;692436;28;1254;-88
2022/03/18 00:09:42;;;;;;;13.45;7.55;;;;;;;4.26;63.01;103222.41;691240;28;1284;-89
2022/03/18 00:10:07;;;;;;;12.90;7.50;;;;;;;4.14;63.15;103201.44;693746;28;1294;-88
2022/03/18 00:10:29;;;;;;;9.93;7.10;;;;;;;4.11;62.98;103196.88;694929;28;1367;-88
2022/03/18 00:10:49;;;;;;;9.75;6.85;;;;;;;4.14;63.23;103209.19;689613;28;1220;-88
2022/03/18 00:11:11;;;;;;;10.32;7.00;;;;;;;4.18;63.20;103219.03;692536;28;1182;-88
2022/03/18 00:11:32;;;;;;;9.25;6.90;;;;;;;4.17;63.39;103212.06;692804;28;1269;-88
2022/03/18 00:11:52;;;;;;;10.70;7.25;;;;;;;4.19;63.20;103223.47;689624;28;1181;-89
2022/03/18 00:12:13;;;;;;;13.63;7.43;;;;;;;4.09;63.22;103200.09;693646;28;1320;-87
2022/03/18 00:12:34;;;;;;;14.15;7.32;;;;;;;4.14;63.14;103206.63;693968;28;1250;-89
2022/03/18 00:12:54;;;;;;;12.82;7.30;;;;;;;4.11;63.14;103201.16;691771;28;1343;-89
2022/03/18 00:13:15;;;;;;;12.33;6.90;;;;;;;4.15;63.24;103217.84;691747;28;1406;-87
2022/03/18 00:13:35;;;;;;;10.82;6.50;;;;;;;4.10;63.15;103205.41;691847;28;1167;-88
2022/03/18 00:13:58;;;;;;;10.03;6.40;;;;;;;4.11;63.05;103207.22;692697;28;1445;-88
2022/03/18 00:14:19;;;;;;;7.88;6.25;;;;;;;4.11;63.14;103212.41;691332;28;1378;-88
2022/03/18 00:14:40;;;;;;;9.23;6.32;;;;;;;4.14;63.05;103213.44;693483;28;1466;-89
2022/03/18 00:15:01;;;;;;;10.27;6.18;;;;;;;4.14;63.12;103219.53;692485;28;1656;-88
2022/03/18 00:15:23;;;;;;;11.10;6.50;;;;;;;4.13;63.09;103209.97;689823;28;1414;-89
2022/03/18 00:15:44;;;;;;;11.95;6.60;;;;;;;4.08;63.43;103217.28;691855;28;1496;-89
2022/03/18 00:16:05;;;;;;;13.00;6.93;;;;;;;4.06;63.58;103203.28;692673;28;1187;-88
2022/03/18 00:16:25;;;;;;;11.27;6.90;;;;;;;4.07;63.22;103207.72;690107;28;1428;-89
2022/03/18 00:16:46;;;;;;;10.52;6.88;;;;;;;4.04;62.71;103204.84;689105;28;1138;-89
2022/03/18 00:17:08;;;;;;;8.80;6.70;;;;;;;4.03;62.96;103213.34;693962;28;1400;-88
2022/03/18 00:17:29;;;;;;;9.57;6.75;;;;;;;4.07;63.22;103210.31;692860;28;1561;-88
2022/03/18 00:17:50;;;;;;;10.90;6.40;;;;;;;4.08;62.80;103217.28;695717;28;1365;-88
2022/03/18 00:18:11;;;;;;;11.68;6.45;;;;;;;4.03;62.85;103212.44;693623;28;1513;-88
2022/03/18 00:18:31;;;;;;;12.97;6.60;;;;;;;4.08;63.29;103217.28;693921;28;1518;-88
2022/03/18 00:18:52;;;;;;;13.52;7.40;;;;;;;4.10;62.92;103215.75;690528;28;1914;-88
2022/03/18 00:19:13;;;;;;;12.17;7.27;;;;;;;4.07;63.21;103209.38;689164;28;1356;-88
2022/03/18 00:19:35;;;;;;;11.37;7.30;;;;;;;4.03;63.20;103207.25;689817;28;1507;-89
2022/03/18 00:19:55;;;;;;;11.73;7.57;;;;;;;4.04;62.86;103206.53;689877;28;1151;-88
2022/03/18 00:20:16;;;;;;;12.10;7.90;;;;;;;3.99;63.19;103205.16;690284;28;1153;-88
2022/03/18 00:20:37;;;;;;;11.27;7.53;;;;;;;3.97;63.24;103207.59;690453;28;1207;-88
2022/03/18 00:20:57;;;;;;;9.80;7.10;;;;;;;4.00;62.89;103209.56;693174;28;1184;-88
2022/03/18 00:21:19;;;;;;;9.63;7.07;;;;;;;4.03;63.35;103215.94;687321;28;1154;-87
2022/03/18 00:21:39;;;;;;;10.90;7.60;;;;;;;3.95;63.24;103193.63;689037;28;1508;-88
2022/03/18 00:22:01;;;;;;;9.40;7.27;;;;;;;3.98;63.37;103206.84;689647;28;1277;-88
2022/03/18 00:22:22;;;;;;;10.13;7.22;;;;;;;4.02;63.25;103210.63;692028;28;1571;-86
2022/03/18 00:22:44;;;;;;;8.82;6.80;;;;;;;3.97;62.84;103207.59;691187;28;1740;-85
2022/03/18 00:27:05;;;;;;;11.85;7.30;;;;;;;3.99;63.22;103220.69;676513;29;1272;-86
2022/03/18 00:28:10;;;;;;;11.75;7.30;;;;;;;4.01;63.48;103229.47;676733;29;1662;-85
2022/03/18 00:28:31;;;;;;;11.73;7.97;;;;;;;3.94;63.41;103215.06;666048;29;1462;-85
2022/03/18 00:28:52;;;;;;;11.68;7.88;;;;;;;4.00;63.04;103219.91;666674;29;1235;-86
2022/03/18 00:29:13;;;;;;;12.20;8.05;;;;;;;3.92;63.07;103214.91;663698;29;1401;-88
2022/03/18 00:29:35;;;;;;;13.98;8.32;;;;;;;3.97;62.94;103228.28;671263;29;1459;-88
2022/03/18 00:29:58;;;;;;;15.88;8.90;;;;;;;4.00;63.01;103227.66;673576;29;1387;-88
2022/03/18 00:30:20;;;;;;;14.85;8.60;;;;;;;3.95;63.35;103225.56;670997;29;1520;-88
2022/03/18 00:30:41;;;;;;;13.77;8.18;;;;;;;3.91;63.32;103220.84;669274;29;1277;-88
2022/03/18 00:31:03;;;;;;;12.90;7.93;;;;;;;3.89;63.13;103212.06;674594;29;1526;-88
2022/03/18 00:31:24;;;;;;;11.98;7.70;;;;;;;3.95;63.19;103222.97;679289;29;1224;-89
2022/03/18 00:31:45;;;;;;;10.63;7.60;;;;;;;3.87;63.14;103216.19;681993;29;1612;-88
2022/03/18 00:32:06;;;;;;;9.87;7.20;;;;;;;3.73;63.42;103212.25;678959;29;1699;-88
2022/03/18 00:32:26;;;;;;;12.05;7.45;;;;;;;3.68;63.61;103214.41;678442;29;1430;-89
2022/03/18 00:32:51;;;;;;;12.93;7.05;;;;;;;3.67;63.75;103228.09;690977;28;1303;-87
2022/03/18 00:33:11;;;;;;;13.23;7.10;;;;;;;3.53;63.79;103202.59;691840;28;1546;-88
2022/03/18 00:33:32;;;;;;;13.10;6.80;;;;;;;3.54;64.04;103213.09;695995;28;833;-89
2022/03/18 00:33:52;;;;;;;11.55;6.97;;;;;;;3.50;64.11;103205.78;694633;28;1240;-89
2022/03/18 00:34:13;;;;;;;11.30;7.60;;;;;;;3.54;63.88;103218.25;690203;28;1219;-88
2022/03/18 00:34:34;;;;;;;12.95;7.70;;;;;;;3.53;64.38;103219.03;690333;28;1404;-88
2022/03/18 00:34:55;;;;;;;12.53;7.80;;;;;;;3.47;64.41;103209.75;692937;28;1270;-88
2022/03/18 00:35:15;;;;;;;13.23;7.60;;;;;;;3.46;64.22;103211.44;692912;28;1554;-88
2022/03/18 00:35:36;;;;;;;12.17;8.00;;;;;;;3.49;64.33;103221.16;689869;28;1287;-88
2022/03/18 00:35:56;;;;;;;12.97;8.00;;;;;;;3.45;64.65;103214.78;695156;28;1303;-88
2022/03/18 00:36:17;;;;;;;11.07;7.65;;;;;;;3.47;64.32;103223.59;694168;28;1550;-88
2022/03/18 00:36:37;;;;;;;13.52;7.45;;;;;;;3.39;64.89;103203.88;691535;28;1285;-86
2022/03/18 00:36:58;;;;;;;14.20;7.10;;;;;;;3.41;64.56;103215.25;693022;28;1202;-88
2022/03/18 00:37:19;;;;;;;15.90;7.75;;;;;;;3.51;64.57;103229.97;694788;28;1485;-87
2022/03/18 00:37:40;;;;;;;12.10;7.65;;;;;;;3.44;64.60;103219.78;696476;28;1347;-88
2022/03/18 00:38:02;;;;;;;11.50;8.00;;;;;;;3.40;64.35;103210.84;695879;28;1189;-87
2022/03/18 00:38:22;;;;;;;11.68;7.68;;;;;;;3.48;64.81;103227.97;691773;28;1609;-88
2022/03/18 00:38:43;;;;;;;14.27;8.07;;;;;;;3.41;64.21;103211.00;689514;28;1971;-88
2022/03/18 00:39:05;;;;;;;14.32;8.00;;;;;;;3.50;64.35;103222.97;692111;28;1115;-88
2022/03/18 00:39:26;;;;;;;13.18;8.05;;;;;;;3.41;64.78;103210.06;690063;28;1313;-88
2022/03/18 00:39:46;;;;;;;12.45;8.20;;;;;;;3.47;64.69;103226.16;689515;28;1221;-88
2022/03/18 00:40:08;;;;;;;11.35;8.00;;;;;;;3.48;64.62;103233.16;688709;28;1403;-88
2022/03/18 00:40:29;;;;;;;12.38;7.68;;;;;;;3.44;64.50;103222.38;693278;28;1696;-88
2022/03/18 00:40:50;;;;;;;12.02;7.35;;;;;;;3.44;64.39;103219.78;693094;28;1334;-88
2022/03/18 00:41:11;;;;;;;13.48;7.50;;;;;;;3.39;64.31;103214.19;691210;28;1646;-88
2022/03/18 00:41:32;;;;;;;11.50;7.57;;;;;;;3.36;64.53;103209.63;690471;28;1333;-88
2022/03/18 00:41:53;;;;;;;11.40;7.75;;;;;;;3.34;64.51;103206.00;690770;28;1351;-88
2022/03/18 00:42:14;;;;;;;10.50;7.55;;;;;;;3.36;64.46;103212.22;694430;28;1445;-87
2022/03/18 00:42:35;;;;;;;11.70;7.40;;;;;;;3.39;64.57;103217.66;693018;28;1686;-88
2022/03/18 00:42:56;;;;;;;12.02;7.55;;;;;;;3.36;64.57;103216.47;692946;28;1359;-88
2022/03/18 00:43:17;;;;;;;11.20;7.20;;;;;;;3.36;64.42;103214.78;693137;28;1515;-87
2022/03/18 00:43:39;;;;;;;9.83;7.10;;;;;;;3.43;64.46;103229.19;693657;28;1297;-88
2022/03/18 00:44:00;;;;;;;13.57;7.05;;;;;;;3.38;64.38;103223.59;697189;28;1308;-88
2022/03/18 00:44:20;;;;;;;16.88;7.50;;;;;;;3.36;64.61;103217.38;692310;28;1555;-88
2022/03/18 00:44:41;;;;;;;16.02;7.43;;;;;;;3.38;64.49;103223.59;691394;28;1212;-87
2022/03/18 00:45:04;;;;;;;14.38;7.55;;;;;;;3.44;64.60;103237.88;692728;28;1297;-87
2022/03/18 00:45:24;;;;;;;12.65;7.68;;;;;;;3.38;64.51;103225.28;693047;28;1756;-88
2022/03/18 00:45:45;;;;;;;12.63;7.37;;;;;;;3.37;64.52;103229.53;690813;28;1281;-87
2022/03/18 00:46:06;;;;;;;11.43;7.47;;;;;;;3.35;64.35;103228.47;691093;28;1448;-88
2022/03/18 00:46:26;;;;;;;10.43;7.18;;;;;;;3.33;64.35;103222.25;693523;28;1645;-88
2022/03/18 00:46:47;;;;;;;8.90;7.00;;;;;;;3.33;64.77;103221.34;691023;28;1110;-88
2022/03/18 00:52:03;;;;;;;8.93;6.72;;;;;;;3.35;65.01;103228.47;693213;28;1124;-88
2022/03/18 00:52:22;;;;;;;12.90;6.20;;;;;;;3.31;64.94;103231.50;695644;28;1287;-88
2022/03/18 00:52:43;;;;;;;13.90;6.32;;;;;;;3.31;64.99;103231.50;694901;28;1127;-88
2022/03/18 00:53:04;;;;;;;9.98;6.30;;;;;;;3.27;64.76;103217.38;697496;28;1279;-87
2022/03/18 00:53:24;;;;;;;11.43;6.40;;;;;;;3.33;64.98;103232.59;692542;28;1650;-88
2022/03/18 00:53:45;;;;;;;9.48;6.45;;;;;;;3.37;65.20;103236.38;692421;28;1169;-87
2022/03/18 00:54:05;;;;;;;9.25;6.57;;;;;;;3.32;64.92;103224.69;693800;28;1414;-87
2022/03/18 00:54:26;;;;;;;9.43;6.90;;;;;;;3.30;64.94;103223.63;695332;28;1513;-88
2022/03/18 00:54:46;;;;;;;9.70;6.80;;;;;;;3.35;64.68;103240.44;694787;28;1443;-88
2022/03/18 00:55:08;;;;;;;10.23;6.65;;;;;;;3.37;64.58;103236.38;695382;28;1351;-88
2022/03/18 00:55:28;;;;;;;9.93;6.35;;;;;;;3.25;64.95;103211.16;688725;28;1286;-88
2022/03/18 00:55:49;;;;;;;10.55;6.72;;;;;;;3.27;64.35;103214.78;689426;28;1277;-88
2022/03/18 00:56:09;;;;;;;9.90;6.57;;;;;;;3.37;64.83;103236.38;689791;28;1414;-87
2022/03/18 00:56:30;;;;;;;9.82;6.57;;;;;;;3.28;65.04;103226.03;694735;28;1533;-88
2022/03/18 00:56:50;;;;;;;9.73;6.43;;;;;;;3.30;64.56;103233.94;692406;28;1317;-88
2022/03/18 00:57:12;;;;;;;8.60;6.40;;;;;;;3.21;64.56;103211.66;694381;28;1051;-88
2022/03/18 00:57:33;;;;;;;8.48;6.38;;;;;;;3.28;64.59;103226.03;695455;28;1455;-88
2022/03/18 00:57:55;;;;;;;9.77;6.72;;;;;;;3.25;64.61;103220.59;691297;28;1262;-88
2022/03/18 00:58:15;;;;;;;12.85;7.40;;;;;;;3.33;64.85;103239.41;696858;28;1177;-87
2022/03/18 00:58:36;;;;;;;13.10;7.40;;;;;;;3.24;64.93;103224.84;693427;28;1359;-88
2022/03/18 00:58:56;;;;;;;14.73;7.03;;;;;;;3.33;64.60;103234.25;692201;28;1983;-88
2022/03/18 00:59:17;;;;;;;15.57;6.88;;;;;;;3.25;64.85;103225.75;695285;28;1249;-87
2022/03/18 00:59:38;;;;;;;16.33;7.03;;;;;;;3.25;64.60;103221.50;692000;28;1297;-87
2022/03/18 00:59:58;;;;;;;13.07;6.67;;;;;;;3.25;64.67;103226.66;691426;28;1218;-88
2022/03/18 01:00:19;;;;;;;12.73;6.97;;;;;;;3.32;64.82;103238.50;689858;28;1303;-87
2022/03/18 01:00:39;;;;;;;11.35;6.50;;;;;;;3.23;64.76;103228.19;690802;28;1345;-87
2022/03/18 01:01:00;;;;;;;11.07;6.40;;;;;;;3.23;64.84;103228.19;692427;28;1276;-88
2022/03/18 01:01:20;;;;;;;8.13;6.05;;;;;;;3.23;64.70;103228.19;689459;28;1544;-88
2022/03/18 01:01:41;;;;;;;8.17;6.30;;;;;;;3.20;64.53;103227.91;690215;28;1258;-87
2022/03/18 01:02:02;;;;;;;8.43;6.40;;;;;;;3.28;64.85;103234.72;688576;28;1242;-88
2022/03/18 01:02:23;;;;;;;9.48;6.32;;;;;;;3.26;64.80;103233.63;691310;28;1539;-88
2022/03/18 01:02:43;;;;;;;10.93;6.50;;;;;;;3.28;64.54;103242.47;690443;28;1262;-87
2022/03/18 01:03:05;;;;;;;13.15;6.88;;;;;;;3.23;64.63;103229.84;692026;28;1345;-87
2022/03/18 01:03:26;;;;;;;12.43;6.75;;;;;;;3.27;64.40;103242.31;690295;28;1504;-88
2022/03/18 01:03:47;;;;;;;10.68;6.70;;;;;;;3.18;64.29;103224.22;690283;28;1345;-88
2022/03/18 01:04:07;;;;;;;9.30;6.53;;;;;;;3.23;64.59;103235.91;692422;28;1152;-88
2022/03/18 01:04:31;;;;;;;9.13;6.47;;;;;;;3.22;64.78;103226.38;695179;28;1373;-88
2022/03/18 01:04:51;;;;;;;7.90;5.82;;;;;;;3.22;64.61;103235.75;690318;28;1392;-87
2022/03/18 01:05:12;;;;;;;7.33;5.70;;;;;;;3.15;64.77;103223.94;689995;28;1305;-88
2022/03/18 01:05:33;;;;;;;6.50;5.60;;;;;;;3.20;64.45;103234.72;694954;28;1806;-86
2022/03/18 01:05:54;;;;;;;9.48;5.80;;;;;;;3.18;64.72;103229.38;696341;28;1760;-87
2022/03/18 01:06:14;;;;;;;9.53;5.73;;;;;;;3.23;64.63;103241.09;695404;28;1482;-88
2022/03/18 01:06:35;;;;;;;10.77;6.47;;;;;;;3.20;64.65;103240.81;689197;28;1181;-88
2022/03/18 01:06:57;;;;;;;9.10;6.10;;;;;;;3.16;64.48;103225.75;692794;28;1400;-88
2022/03/18 01:07:17;;;;;;;9.70;6.20;;;;;;;3.20;64.42;103238.22;695650;28;1323;-88
2022/03/18 01:07:38;;;;;;;9.77;5.80;;;;;;;3.17;64.48;103234.44;693194;28;1444;-88
2022/03/18 01:07:59;;;;;;;11.00;5.90;;;;;;;3.19;64.63;103235.47;692734;28;1413;-87
2022/03/18 01:08:19;;;;;;;10.33;5.93;;;;;;;3.14;64.69;103232.44;690207;28;1573;-87
2022/03/18 01:08:40;;;;;;;9.20;5.82;;;;;;;3.13;64.66;103225.47;688985;28;1138;-88
2022/03/18 01:09:02;;;;;;;7.47;6.00;;;;;;;3.15;64.55;103234.25;692924;28;1439;-88
2022/03/18 01:09:25;;;;;;;8.30;5.82;;;;;;;3.16;64.29;103236.09;691885;28;1677;-88
2022/03/18 01:09:45;;;;;;;9.30;5.80;;;;;;;3.17;64.44;103237.00;691484;28;1100;-87
2022/03/18 01:10:07;;;;;;;8.97;5.87;;;;;;;3.13;64.82;103225.47;692490;28;1265;-87
2022/03/18 01:10:27;;;;;;;8.68;5.70;;;;;;;3.11;64.58;103221.81;695709;28;1332;-87
2022/03/18 01:10:52;;;;;;;9.88;5.97;;;;;;;3.10;64.43;103230.31;697060;28;1258;-87
2022/03/18 01:11:12;;;;;;;13.10;6.28;;;;;;;3.18;64.60;103242.28;694076;28;1514;-88
2022/03/18 01:11:33;;;;;;;10.35;6.00;;;;;;;3.12;64.61;103236.56;694226;28;1333;-87
2022/03/18 01:11:54;;;;;;;9.88;6.05;;;;;;;3.17;64.69;103237.91;695945;28;1509;-87
2022/03/18 01:12:16;;;;;;;7.57;6.00;;;;;;;3.14;64.72;103229.88;695606;28;1473;-86
2022/03/18 01:12:37;;;;;;;8.70;6.13;;;;;;;3.14;64.75;103232.44;691862;28;1285;-86
2022/03/18 01:12:57;;;;;;;8.63;5.97;;;;;;;3.14;64.56;103241.06;689523;28;1326;-87
2022/03/18 01:13:18;;;;;;;7.60;6.33;;;;;;;3.14;64.72;103238.50;693305;28;1262;-87
2022/03/18 01:13:38;;;;;;;10.70;6.53;;;;;;;3.09;64.64;103234.59;696065;28;1341;-85
2022/03/18 01:13:59;;;;;;;10.97;6.47;;;;;;;3.09;64.70;103236.22;696408;28;1308;-86
2022/03/18 01:14:20;;;;;;;11.20;6.00;;;;;;;3.19;64.69;103249.28;693094;28;1510;-86
2022/03/18 01:14:41;;;;;;;9.70;5.88;;;;;;;3.13;64.81;103246.13;689855;28;1484;-87
2022/03/18 01:15:02;;;;;;;9.07;6.10;;;;;;;3.13;64.71;103240.94;689097;28;1305;-87
2022/03/18 01:15:23;;;;;;;9.20;6.18;;;;;;;3.13;64.81;103246.13;693669;28;1432;-87
2022/03/18 01:15:43;;;;;;;8.17;6.20;;;;;;;3.11;64.31;103232.13;693052;28;1223;-87
2022/03/18 01:16:04;;;;;;;7.75;5.97;;;;;;;3.12;64.94;103239.13;694778;28;1192;-87
2022/03/18 01:16:25;;;;;;;7.25;5.97;;;;;;;3.13;64.70;103235.78;696019;28;1457;-87
2022/03/18 01:16:46;;;;;;;7.18;6.07;;;;;;;3.15;64.65;103249.75;691618;28;1385;-86
2022/03/18 01:17:06;;;;;;;9.25;6.20;;;;;;;3.05;64.40;103224.69;691840;28;1190;-87
2022/03/18 01:17:27;;;;;;;9.67;6.23;;;;;;;3.17;64.80;103248.22;690290;28;1681;-87
2022/03/18 01:17:47;;;;;;;9.32;6.10;;;;;;;3.10;64.70;103238.06;691511;28;1178;-87
2022/03/18 01:18:08;;;;;;;9.00;6.07;;;;;;;3.09;64.67;103239.75;694927;28;1299;-88
2022/03/18 01:18:28;;;;;;;10.65;6.05;;;;;;;3.10;64.56;103238.06;690007;28;1311;-88
2022/03/18 01:18:49;;;;;;;10.85;6.03;;;;;;;3.10;64.44;103245.78;687116;28;1976;-87
2022/03/18 01:19:10;;;;;;;9.97;6.03;;;;;;;3.12;64.54;103246.88;687132;28;1111;-87
2022/03/18 01:19:31;;;;;;;9.38;6.00;;;;;;;3.13;64.92;103246.13;687230;28;1265;-87
2022/03/18 01:19:51;;;;;;;12.75;6.40;;;;;;;3.07;64.64;103240.34;691993;28;1333;-87
2022/03/18 01:20:12;;;;;;;11.93;6.17;;;;;;;3.16;64.74;103248.97;695305;28;1490;-87
2022/03/18 01:20:32;;;;;;;9.98;6.28;;;;;;;3.10;64.43;103240.63;692985;28;1331;-87
2022/03/18 01:20:53;;;;;;;7.22;5.63;;;;;;;3.05;64.37;103234.13;693132;28;1598;-87
2022/03/18 01:21:14;;;;;;;6.60;5.70;;;;;;;3.07;64.57;103235.19;690008;28;1345;-87
2022/03/18 01:21:36;;;;;;;7.55;5.82;;;;;;;3.04;64.71;103235.78;690404;28;1325;-87
2022/03/18 01:21:56;;;;;;;8.82;5.78;;;;;;;3.12;64.44;103246.88;691813;28;1198;-87
2022/03/18 01:22:17;;;;;;;9.63;5.70;;;;;;;3.12;64.58;103246.88;692347;28;1403;-88
2022/03/18 01:22:37;;;;;;;9.27;5.80;;;;;;;3.08;64.55;103245.66;689023;28;1289;-87
2022/03/18 01:22:58;;;;;;;7.90;5.70;;;;;;;3.06;64.74;103241.09;690523;28;771;-87
2022/03/18 01:23:18;;;;;;;7.50;5.80;;;;;;;3.03;64.65;103236.53;689507;28;1423;-87
2022/03/18 01:23:39;;;;;;;7.28;5.50;;;;;;;3.03;64.75;103233.97;690931;28;1581;-87
2022/03/18 01:23:59;;;;;;;7.00;5.75;;;;;;;3.03;64.49;103238.19;692675;28;1341;-87
2022/03/18 01:24:20;;;;;;;7.37;5.70;;;;;;;3.06;64.48;103241.09;691833;28;1478;-87
2022/03/18 01:24:41;;;;;;;8.90;6.13;;;;;;;3.09;64.23;103243.97;688849;28;1205;-87
2022/03/18 01:25:01;;;;;;;9.57;6.30;;;;;;;3.07;64.30;103245.50;692953;28;1248;-88
2022/03/18 01:25:22;;;;;;;9.63;6.43;;;;;;;3.05;64.48;103236.72;689955;28;1253;-87
2022/03/18 01:25:42;;;;;;;8.13;6.20;;;;;;;3.13;64.72;103246.13;692417;28;2135;-86
2022/03/18 01:26:03;;;;;;;8.33;6.00;;;;;;;3.09;64.43;103236.22;692076;28;2496;-87
2022/03/18 01:26:24;;;;;;;12.37;6.30;;;;;;;3.11;64.52;103242.44;693325;28;1281;-87
2022/03/18 01:26:45;;;;;;;13.13;6.30;;;;;;;3.07;64.44;103242.91;688970;28;1309;-87
2022/03/18 01:27:06;;;;;;;12.67;6.23;;;;;;;3.12;64.53;103252.03;689897;28;1216;-87
2022/03/18 01:27:26;;;;;;;10.23;6.00;;;;;;;3.06;64.62;103238.53;690064;28;1385;-87
2022/03/18 01:27:47;;;;;;;12.27;6.00;;;;;;;3.05;64.72;103234.13;690346;28;1539;-87
2022/03/18 01:28:07;;;;;;;12.98;5.97;;;;;;;3.07;64.83;103237.75;692462;28;1317;-87
2022/03/18 01:28:29;;;;;;;12.53;5.90;;;;;;;3.08;64.62;103247.31;694395;28;1459;-87
2022/03/18 01:28:52;;;;;;;13.77;5.90;;;;;;;3.05;64.68;103241.88;686546;28;1574;-87
2022/03/18 01:29:13;;;;;;;12.95;6.13;;;;;;;3.04;64.47;103237.44;690900;28;1413;-87
2022/03/18 01:29:34;;;;;;;10.60;6.00;;;;;;;3.05;64.74;103234.13;688854;28;1281;-88
2022/03/18 01:29:54;;;;;;;10.05;6.05;;;;;;;3.04;64.50;103232.28;690077;28;1336;-87
2022/03/18 01:30:15;;;;;;;10.40;6.20;;;;;;;3.07;64.44;103240.34;692556;28;1531;-87
2022/03/18 01:30:35;;;;;;;10.30;6.30;;;;;;;3.07;64.48;103248.09;689621;28;1464;-87
2022/03/18 01:30:57;;;;;;;7.60;6.03;;;;;;;3.06;64.48;103244.56;687344;28;1408;-87
2022/03/18 01:31:17;;;;;;;7.75;5.78;;;;;;;3.07;64.61;103241.22;689711;28;1440;-87
2022/03/18 01:31:38;;;;;;;8.48;5.68;;;;;;;3.11;64.43;103263.09;689071;28;1329;-87
2022/03/18 01:31:59;;;;;;;10.10;5.70;;;;;;;3.11;64.21;103263.09;688676;28;1332;-87
2022/03/18 01:32:20;;;;;;;10.40;5.70;;;;;;;3.03;64.65;103243.38;687654;28;1669;-87
2022/03/18 01:32:41;;;;;;;9.73;5.73;;;;;;;3.01;64.22;103249.28;690157;28;1471;-87
2022/03/18 01:33:02;;;;;;;10.00;6.10;;;;;;;3.00;64.56;103244.00;694205;28;1081;-87
2022/03/18 01:33:23;;;;;;;9.27;6.03;;;;;;;2.98;64.47;103241.25;694501;28;1676;-87
2022/03/18 01:33:43;;;;;;;8.25;5.75;;;;;;;2.98;64.57;103246.41;691682;28;1215;-87
2022/03/18 01:34:04;;;;;;;8.90;5.80;;;;;;;3.03;64.51;103248.53;690013;28;1360;-87
2022/03/18 01:34:29;;;;;;;8.30;5.88;;;;;;;3.04;64.38;103251.25;690093;28;1263;-87
2022/03/18 01:34:50;;;;;;;8.95;5.90;;;;;;;3.01;64.46;103251.88;691964;28;1145;-87
2022/03/18 01:35:11;;;;;;;8.98;5.75;;;;;;;3.04;64.43;103255.50;692358;28;1120;-87
2022/03/18 01:35:32;;;;;;;8.98;5.50;;;;;;;2.98;64.57;103245.50;692203;28;1467;-87
2022/03/18 01:35:52;;;;;;;8.70;5.30;;;;;;;2.97;64.54;103244.59;690135;28;1147;-87
2022/03/18 01:36:13;;;;;;;7.65;5.75;;;;;;;3.01;64.57;103251.88;695176;28;1241;-87
2022/03/18 01:36:33;;;;;;;6.38;5.70;;;;;;;3.09;64.54;103264.63;692336;28;1329;-87
2022/03/18 01:36:54;;;;;;;8.07;6.07;;;;;;;3.01;64.57;103250.97;691495;28;1313;-87
2022/03/18 01:37:15;;;;;;;8.07;5.70;;;;;;;2.99;64.25;103244.72;692487;28;1133;-87
2022/03/18 01:37:36;;;;;;;8.50;5.30;;;;;;;3.04;64.32;103255.50;693036;28;1242;-87
2022/03/18 01:37:56;;;;;;;7.57;5.18;;;;;;;2.96;64.37;103244.44;695559;28;1470;-87
2022/03/18 01:38:17;;;;;;;9.33;5.40;;;;;;;3.01;64.35;103254.44;695248;28;1402;-86
2022/03/18 01:38:37;;;;;;;9.00;5.80;;;;;;;3.08;64.44;103267.97;693201;28;756;-87
2022/03/18 01:38:59;;;;;;;8.65;5.55;;;;;;;3.07;64.59;103268.72;692560;28;1972;-87
2022/03/18 01:39:20;;;;;;;7.72;5.50;;;;;;;2.99;64.57;103243.06;695177;28;1114;-88
2022/03/18 01:39:40;;;;;;;8.98;5.65;;;;;;;3.00;64.62;103252.63;694982;28;1262;-86
2022/03/18 01:40:01;;;;;;;10.27;6.10;;;;;;;3.06;64.55;103259.16;692995;28;1313;-87
2022/03/18 01:40:21;;;;;;;10.60;5.90;;;;;;;3.03;64.60;103253.69;692749;28;1198;-86
2022/03/18 01:40:42;;;;;;;8.43;5.50;;;;;;;3.06;64.25;103259.16;692981;28;1229;-87
2022/03/18 01:41:02;;;;;;;8.18;5.15;;;;;;;3.10;64.57;103266.44;692424;28;1339;-87
2022/03/18 01:41:23;;;;;;;7.88;5.28;;;;;;;3.05;64.50;103257.34;690618;28;1301;-87
2022/03/18 01:41:43;;;;;;;10.00;5.70;;;;;;;3.06;64.60;103259.16;691104;28;1275;-87
2022/03/18 01:42:04;;;;;;;10.07;6.05;;;;;;;3.08;64.19;103262.81;689904;28;1344;-87
2022/03/18 01:42:25;;;;;;;9.40;5.97;;;;;;;3.04;64.52;103255.50;690226;28;1159;-87
2022/03/18 01:42:45;;;;;;;9.73;5.73;;;;;;;3.08;64.41;103268.88;688957;28;1179;-87
2022/03/18 01:43:10;;;;;;;11.13;5.45;;;;;;;3.07;64.48;103263.56;689975;28;1349;-87
2022/03/18 01:43:42;;;;;;;14.73;5.90;;;;;;;2.99;64.28;103247.31;692718;28;1273;-87
2022/03/18 01:44:03;;;;;;;11.30;6.40;;;;;;;3.05;64.43;103267.66;692530;28;1430;-87
2022/03/18 01:44:23;;;;;;;8.60;6.25;;;;;;;3.06;64.79;103264.31;687448;28;1679;-87
2022/03/18 01:44:47;;;;;;;10.37;6.30;;;;;;;3.04;64.46;103259.00;692881;28;1371;-87
2022/03/18 01:45:08;;;;;;;10.80;6.10;;;;;;;3.07;64.56;103258.41;694515;28;1377;-87
2022/03/18 01:45:28;;;;;;;10.45;6.10;;;;;;;3.06;64.36;103259.16;692672;28;1504;-87
2022/03/18 01:45:51;;;;;;;9.20;5.90;;;;;;;3.08;64.48;103263.72;695818;28;1228;-87
2022/03/18 01:46:15;;;;;;;7.60;5.38;;;;;;;3.08;64.21;103268.88;698289;28;1391;-86
2022/03/18 01:46:39;;;;;;;7.47;5.10;;;;;;;3.06;64.61;103264.31;694543;28;1383;-88
2022/03/18 01:47:00;;;;;;;7.28;5.43;;;;;;;2.97;64.52;103254.00;693482;28;1112;-87
2022/03/18 01:47:20;;;;;;;8.17;5.67;;;;;;;3.06;64.17;103265.22;694576;28;1520;-88
2022/03/18 01:47:43;;;;;;;8.02;5.28;;;;;;;3.04;64.13;103260.66;691646;28;1107;-87
2022/03/18 01:48:05;;;;;;;8.43;4.82;;;;;;;3.03;64.23;103264.00;692813;28;1198;-87
2022/03/18 01:48:25;;;;;;;9.23;5.07;;;;;;;3.00;64.47;103252.63;693733;28;1645;-87
2022/03/18 01:48:46;;;;;;;9.63;6.03;;;;;;;3.00;64.34;103257.78;690269;28;1300;-87
2022/03/18 01:49:08;;;;;;;11.85;6.40;;;;;;;3.06;64.40;103269.50;693018;28;1221;-87
2022/03/18 01:49:28;;;;;;;11.55;6.38;;;;;;;3.10;64.33;103275.09;693809;28;1641;-87
2022/03/18 01:49:49;;;;;;;11.27;6.20;;;;;;;3.06;64.38;103261.75;690363;28;1150;-87
2022/03/18 01:50:11;;;;;;;7.57;5.80;;;;;;;3.05;63.99;103262.50;690286;28;1276;-87
2022/03/18 01:50:33;;;;;;;8.48;5.97;;;;;;;3.13;64.44;103277.09;693385;28;1405;-87
2022/03/18 01:50:53;;;;;;;9.00;5.47;;;;;;;3.05;64.26;103262.50;693345;28;1349;-87